M Y Odessa — ZCYV3 — position and weather

sailwx.info

Track history (hours):
 
Tides and Currents Weather Stations Pressure Air Temp Water Temp Dewpoint Dewpoint Depression Visibility Wind Speed Wind Dir Waves Ship Positions

M Y Odessa

Last reported at 2016-May-31 12:27 UTC. Time now 2016-May-31 14:21 UTC.
Position N 43°32' E 007°04'.

Length 48 m; draft 2.4 m.

Type: Pleasure craft. MMSI: 319010700.

Date/timePositionNaut miles runAvg speedWind from/ knotsBaromVisibWave heightAir tempDewpointWater temp
2016-May-31 12:27N 43°32' E 007°04'0 0.0
2016-May-31 11:33N 43°32' E 007°04'0 0.0
2016-May-31 10:33N 43°32' E 007°04'0 0.0
2016-May-31 08:05N 43°32' E 007°04'4 7.4
2016-May-31 07:33N 43°32' E 007°09'13 3.2
2016-May-31 03:27N 43°42' E 007°21'0 0.0
2016-May-31 01:15N 43°42' E 007°21'0 0.0
2016-May-31 00:27N 43°42' E 007°21'0 0.0
2016-May-30 23:33N 43°42' E 007°21'0 0.0
2016-May-30 22:15N 43°42' E 007°21'0 0.0
2016-May-30 21:33N 43°42' E 007°21'0 0.0
2016-May-30 20:33N 43°42' E 007°21'0 0.0
2016-May-30 19:09N 43°42' E 007°21'0 0.0
2016-May-30 18:27N 43°42' E 007°21'0 0.1
2016-May-30 17:19N 43°42' E 007°21'0 0.1
2016-May-30 16:25N 43°42' E 007°21'0 0.0
2016-May-30 15:19N 43°42' E 007°21'0 0.0
2016-May-30 14:31N 43°42' E 007°21'0 0.0
2016-May-30 13:19N 43°42' E 007°21'0 0.0
2016-May-30 12:31N 43°42' E 007°21'0 0.0
2016-May-30 11:25N 43°42' E 007°21'0 0.0
2016-May-30 10:25N 43°42' E 007°21'0 0.0
2016-May-30 09:07N 43°42' E 007°21'1 2.7
2016-May-30 08:33N 43°42' E 007°23'  
2016-May-24 07:27N 43°44' E 007°26'1 1.5
2016-May-24 06:26N 43°43' E 007°25'3 1.3
2016-May-24 04:19N 43°43' E 007°21'0 0.0
2016-May-24 03:07N 43°43' E 007°21'0 0.0
2016-May-24 02:25N 43°43' E 007°21'0 0.0
2016-May-24 01:19N 43°43' E 007°21'0 0.0
2016-May-24 00:13N 43°43' E 007°21'0 0.0
2016-May-23 23:31N 43°43' E 007°21'0 0.0
2016-May-23 20:31N 43°43' E 007°21'0 0.0
2016-May-23 19:19N 43°43' E 007°21'0 0.0
2016-May-23 18:31N 43°43' E 007°21'0 0.0
2016-May-23 17:07N 43°43' E 007°21'0 0.0
2016-May-23 15:31N 43°43' E 007°21'0 0.0
2016-May-23 13:19N 43°43' E 007°21'0 0.1
2016-May-23 12:31N 43°43' E 007°21'0 0.0
2016-May-23 11:31N 43°43' E 007°21'3 1.0
2016-May-23 08:31N 43°40' E 007°19'2 0.3
2016-May-23 02:09N 43°42' E 007°17'0 0.0
2016-May-23 01:27N 43°42' E 007°17'0 0.0
2016-May-23 00:27N 43°42' E 007°17'0 0.0
2016-May-22 23:33N 43°42' E 007°17'0 0.0
2016-May-22 22:27N 43°42' E 007°17'0 0.0
2016-May-22 16:33N 43°42' E 007°17'0 0.0
2016-May-22 13:27N 43°42' E 007°17'0 0.0
2016-May-22 12:33N 43°42' E 007°17'0 0.0
2016-May-22 11:21N 43°42' E 007°17'0 0.0
2016-May-22 10:33N 43°42' E 007°17'0 0.0
2016-May-22 09:27N 43°42' E 007°17'0 0.0
2016-May-21 13:07N 43°42' E 007°17'0 0.9
2016-May-21 12:33N 43°41' E 007°17'  
Track history (hours):
 
Tides and Currents Weather Stations Pressure Air Temp Water Temp Dewpoint Dewpoint Depression Visibility Wind Speed Wind Dir Waves Ship Positions

M Y Odessa

Last reported at 2016-May-31 12:27 UTC. Time now 2016-May-31 14:21 UTC.
Position N 43°32' E 007°04'.

Length 48 m; draft 2.4 m.

Type: Pleasure craft. MMSI: 319010700.

Date/timePositionNaut miles runAvg speedWind from/ knotsBaromVisibWave heightAir tempDewpointWater temp
2016-May-31 12:27N 43°32' E 007°04'0 0.0
2016-May-31 11:33N 43°32' E 007°04'0 0.0
2016-May-31 10:33N 43°32' E 007°04'0 0.0
2016-May-31 08:05N 43°32' E 007°04'4 7.4
2016-May-31 07:33N 43°32' E 007°09'13 3.2
2016-May-31 03:27N 43°42' E 007°21'0 0.0
2016-May-31 01:15N 43°42' E 007°21'0 0.0
2016-May-31 00:27N 43°42' E 007°21'0 0.0
2016-May-30 23:33N 43°42' E 007°21'0 0.0
2016-May-30 22:15N 43°42' E 007°21'0 0.0
2016-May-30 21:33N 43°42' E 007°21'0 0.0
2016-May-30 20:33N 43°42' E 007°21'0 0.0
2016-May-30 19:09N 43°42' E 007°21'0 0.0
2016-May-30 18:27N 43°42' E 007°21'0 0.1
2016-May-30 17:19N 43°42' E 007°21'0 0.1
2016-May-30 16:25N 43°42' E 007°21'0 0.0
2016-May-30 15:19N 43°42' E 007°21'0 0.0
2016-May-30 14:31N 43°42' E 007°21'0 0.0
2016-May-30 13:19N 43°42' E 007°21'0 0.0
2016-May-30 12:31N 43°42' E 007°21'0 0.0
2016-May-30 11:25N 43°42' E 007°21'0 0.0
2016-May-30 10:25N 43°42' E 007°21'0 0.0
2016-May-30 09:07N 43°42' E 007°21'1 2.7
2016-May-30 08:33N 43°42' E 007°23'  
2016-May-24 07:27N 43°44' E 007°26'1 1.5
2016-May-24 06:26N 43°43' E 007°25'3 1.3
2016-May-24 04:19N 43°43' E 007°21'0 0.0
2016-May-24 03:07N 43°43' E 007°21'0 0.0
2016-May-24 02:25N 43°43' E 007°21'0 0.0
2016-May-24 01:19N 43°43' E 007°21'0 0.0
2016-May-24 00:13N 43°43' E 007°21'0 0.0
2016-May-23 23:31N 43°43' E 007°21'0 0.0
2016-May-23 20:31N 43°43' E 007°21'0 0.0
2016-May-23 19:19N 43°43' E 007°21'0 0.0
2016-May-23 18:31N 43°43' E 007°21'0 0.0
2016-May-23 17:07N 43°43' E 007°21'0 0.0
2016-May-23 15:31N 43°43' E 007°21'0 0.0
2016-May-23 13:19N 43°43' E 007°21'0 0.1
2016-May-23 12:31N 43°43' E 007°21'0 0.0
2016-May-23 11:31N 43°43' E 007°21'3 1.0
2016-May-23 08:31N 43°40' E 007°19'2 0.3
2016-May-23 02:09N 43°42' E 007°17'0 0.0
2016-May-23 01:27N 43°42' E 007°17'0 0.0
2016-May-23 00:27N 43°42' E 007°17'0 0.0
2016-May-22 23:33N 43°42' E 007°17'0 0.0
2016-May-22 22:27N 43°42' E 007°17'0 0.0
2016-May-22 16:33N 43°42' E 007°17'0 0.0
2016-May-22 13:27N 43°42' E 007°17'0 0.0
2016-May-22 12:33N 43°42' E 007°17'0 0.0
2016-May-22 11:21N 43°42' E 007°17'0 0.0
2016-May-22 10:33N 43°42' E 007°17'0 0.0
2016-May-22 09:27N 43°42' E 007°17'0 0.0
2016-May-21 13:07N 43°42' E 007°17'0 0.9
2016-May-21 12:33N 43°41' E 007°17'  

Dump ship's entire track history